createdAt,value
2018-09-21T00:01:11.055Z,66.67
2018-09-21T00:03:40.784Z,66.63
2018-09-21T00:06:11.277Z,66.60
2018-09-21T00:08:41.373Z,66.44
2018-09-21T00:11:11.084Z,66.33
2018-09-21T00:13:40.607Z,66.80
2018-09-21T00:16:10.327Z,66.67
2018-09-21T00:18:40.507Z,66.67
2018-09-21T00:21:10.317Z,66.39
2018-09-21T00:23:40.251Z,66.79
2018-09-21T00:26:10.162Z,66.73
2018-09-21T00:28:39.746Z,66.47
2018-09-21T00:31:09.587Z,66.74
2018-09-21T00:33:39.251Z,66.78
2018-09-21T00:36:08.954Z,66.48
2018-09-21T00:38:38.571Z,66.76
2018-09-21T00:41:08.342Z,66.82
2018-09-21T00:43:38.094Z,66.61
2018-09-21T00:46:07.646Z,66.97
2018-09-21T00:48:37.130Z,66.59
2018-09-21T00:51:06.710Z,66.86
2018-09-21T00:53:36.238Z,66.88
2018-09-21T00:56:06.590Z,66.70
2018-09-21T00:58:36.109Z,66.88
2018-09-21T01:01:05.675Z,66.71
2018-09-21T01:03:35.260Z,66.86
2018-09-21T01:06:05.194Z,66.84
2018-09-21T01:08:34.802Z,66.97
2018-09-21T01:11:04.530Z,67.16
2018-09-21T01:13:34.198Z,67.01
2018-09-21T01:16:03.839Z,66.87
2018-09-21T01:18:33.399Z,67.17
2018-09-21T01:21:02.898Z,67.02
2018-09-21T01:23:32.631Z,66.88
2018-09-21T01:26:02.462Z,67.02
2018-09-21T01:28:32.683Z,66.90
2018-09-21T01:31:02.411Z,66.86
2018-09-21T01:33:32.096Z,67.16
2018-09-21T01:36:01.862Z,66.97
2018-09-21T01:38:31.622Z,67.12
2018-09-21T01:41:01.306Z,66.92
2018-09-21T01:43:31.057Z,66.95
2018-09-21T01:48:39.167Z,67.21
2018-09-21T01:51:09.269Z,66.98
2018-09-21T01:53:38.854Z,67.03
2018-09-21T01:56:08.378Z,66.93
2018-09-21T01:58:37.866Z,67.07
2018-09-21T02:01:07.496Z,67.11
2018-09-21T02:03:36.982Z,66.80
2018-09-21T02:06:07.128Z,67.08
2018-09-21T02:08:36.736Z,66.93
2018-09-21T02:11:06.406Z,67.23
2018-09-21T02:13:36.122Z,67.07
2018-09-21T02:16:05.654Z,67.23
2018-09-21T02:18:35.411Z,67.23
2018-09-21T02:21:05.010Z,67.10
2018-09-21T02:23:34.598Z,67.21
2018-09-21T02:26:04.254Z,66.90
2018-09-21T02:28:33.913Z,67.10
2018-09-21T02:31:03.425Z,66.78
2018-09-21T02:33:33.029Z,66.75
2018-09-21T02:36:02.556Z,67.23
2018-09-21T02:38:32.482Z,66.89
2018-09-21T02:41:02.214Z,67.22
2018-09-21T02:43:32.193Z,66.91
2018-09-21T02:46:02.182Z,67.03
2018-09-21T02:48:32.134Z,67.06
2018-09-21T02:51:01.684Z,66.95
2018-09-21T02:53:31.570Z,66.86
2018-09-21T02:56:01.806Z,66.98
2018-09-21T02:58:31.889Z,66.97
2018-09-21T03:01:01.539Z,66.70
2018-09-21T03:03:31.161Z,66.67
2018-09-21T03:06:00.710Z,67.09
2018-09-21T03:08:30.237Z,67.04
2018-09-21T03:11:00.031Z,67.10
2018-09-21T03:13:29.747Z,66.55
2018-09-21T03:15:59.351Z,66.65
2018-09-21T03:18:29.357Z,66.36
2018-09-21T03:20:59.053Z,66.46
2018-09-21T03:23:28.810Z,66.55
2018-09-21T03:25:58.558Z,66.75
2018-09-21T03:28:28.186Z,66.59
2018-09-21T03:30:57.879Z,66.66
2018-09-21T03:33:27.498Z,66.53
2018-09-21T03:35:57.059Z,66.36
2018-09-21T03:38:26.867Z,66.66
2018-09-21T03:40:56.601Z,66.29
2018-09-21T03:43:26.963Z,66.71
2018-09-21T03:45:56.508Z,66.55
2018-09-21T03:48:26.116Z,66.39
2018-09-21T03:50:56.321Z,66.54
2018-09-21T03:53:26.029Z,66.67
2018-09-21T03:55:55.530Z,66.37
2018-09-21T03:58:25.680Z,66.44
2018-09-21T04:00:55.477Z,66.11
2018-09-21T04:03:25.239Z,66.23
2018-09-21T04:05:56.421Z,66.31
2018-09-21T04:08:26.842Z,66.33
2018-09-21T04:10:57.402Z,66.44
2018-09-21T04:13:27.338Z,66.16
2018-09-21T04:15:56.966Z,66.55
2018-09-21T04:18:26.645Z,66.38
2018-09-21T04:20:56.374Z,66.56
2018-09-21T04:23:26.202Z,66.56
2018-09-21T04:25:55.716Z,66.08
2018-09-21T04:28:25.454Z,66.25
2018-09-21T04:30:55.447Z,66.46
2018-09-21T04:33:25.183Z,66.47
2018-09-21T04:35:55.119Z,66.20
2018-09-21T04:38:24.703Z,66.33
2018-09-21T04:40:54.322Z,66.24
2018-09-21T04:43:24.509Z,66.41
2018-09-21T04:45:54.734Z,66.33
2018-09-21T04:48:24.558Z,66.39
2018-09-21T04:50:54.186Z,66.42
2018-09-21T04:53:23.791Z,66.39
2018-09-21T04:55:53.335Z,66.68
2018-09-21T04:58:23.051Z,66.31
2018-09-21T05:00:52.683Z,66.74
2018-09-21T05:03:22.366Z,66.56
2018-09-21T05:05:51.969Z,66.28
2018-09-21T05:08:21.519Z,66.32
2018-09-21T05:10:51.252Z,66.54
2018-09-21T05:13:23.554Z,66.91
2018-09-21T05:15:59.114Z,67.34
2018-09-21T05:18:29.049Z,67.25
2018-09-21T05:20:58.839Z,67.78
2018-09-21T05:23:28.502Z,67.61
2018-09-21T05:25:58.266Z,68.01
2018-09-21T05:28:27.902Z,68.07
2018-09-21T05:30:58.387Z,68.07
2018-09-21T05:33:28.324Z,67.74
2018-09-21T05:35:58.425Z,67.48
2018-09-21T05:38:28.024Z,67.69
2018-09-21T05:40:57.655Z,67.19
2018-09-21T05:43:27.385Z,67.16
2018-09-21T05:45:57.128Z,67.12
2018-09-21T05:48:28.164Z,67.33
2018-09-21T05:50:59.731Z,66.88
2018-09-21T05:53:29.690Z,67.08
2018-09-21T05:55:59.598Z,66.96
2018-09-21T05:58:29.201Z,66.83
2018-09-21T06:00:58.945Z,66.80
2018-09-21T06:03:29.319Z,66.84
2018-09-21T06:05:58.873Z,67.06
2018-09-21T06:08:28.571Z,67.20
2018-09-21T06:10:58.558Z,66.86
2018-09-21T06:13:28.279Z,67.00
2018-09-21T06:15:57.925Z,67.02
2018-09-21T06:18:27.558Z,66.69
2018-09-21T06:21:04.605Z,66.73
2018-09-21T06:23:34.455Z,66.91
2018-09-21T06:26:04.321Z,66.76
2018-09-21T06:28:34.161Z,66.43
2018-09-21T06:31:05.369Z,66.54
2018-09-21T06:33:35.479Z,66.91
2018-09-21T06:36:05.224Z,66.90
2018-09-21T06:38:35.171Z,66.38
2018-09-21T06:41:04.699Z,66.46
2018-09-21T06:43:35.622Z,66.58
2018-09-21T06:46:05.435Z,66.39
2018-09-21T06:48:35.106Z,66.53
2018-09-21T06:51:04.724Z,66.66
2018-09-21T06:53:34.302Z,66.44
2018-09-21T06:56:04.284Z,66.55
2018-09-21T06:58:34.117Z,66.21
2018-09-21T07:01:04.078Z,66.28
2018-09-21T07:03:33.983Z,66.11
2018-09-21T07:06:04.342Z,66.35
2018-09-21T07:08:34.081Z,66.49
2018-09-21T07:11:03.731Z,66.49
2018-09-21T07:13:33.371Z,66.18
2018-09-21T07:16:03.324Z,66.27
2018-09-21T07:18:33.303Z,66.19
2018-09-21T07:21:03.090Z,66.25
2018-09-21T07:23:33.430Z,66.22
2018-09-21T07:26:03.694Z,66.18
2018-09-21T07:28:33.665Z,66.07
2018-09-21T07:31:04.746Z,66.35
2018-09-21T07:33:34.308Z,66.11
2018-09-21T07:36:04.007Z,65.86
2018-09-21T07:38:33.637Z,66.04
2018-09-21T07:41:03.457Z,66.11
2018-09-21T07:43:33.498Z,66.15
2018-09-21T07:46:03.254Z,66.29
2018-09-21T07:48:33.704Z,66.32
2018-09-21T07:51:03.296Z,66.15
2018-09-21T07:53:33.331Z,66.31
2018-09-21T07:56:03.157Z,66.01
2018-09-21T07:58:33.278Z,66.08
2018-09-21T08:01:02.965Z,66.26
2018-09-21T08:03:33.159Z,65.96
2018-09-21T08:06:02.810Z,65.99
2018-09-21T08:08:33.857Z,66.40
2018-09-21T08:11:03.469Z,66.28
2018-09-21T08:13:33.355Z,66.31
2018-09-21T08:16:04.431Z,66.24
2018-09-21T08:18:34.034Z,66.27
2018-09-21T08:21:03.723Z,66.29
2018-09-21T08:23:33.684Z,66.38
2018-09-21T08:26:03.732Z,66.61
2018-09-21T08:31:32.421Z,66.51
2018-09-21T08:34:02.671Z,66.50
2018-09-21T08:36:33.956Z,66.56
2018-09-21T08:39:03.821Z,66.44
2018-09-21T08:41:33.738Z,66.56
2018-09-21T08:44:03.421Z,66.57
2018-09-21T08:46:34.121Z,66.56
2018-09-21T08:49:03.690Z,66.40
2018-09-21T08:51:33.349Z,66.50
2018-09-21T08:54:03.110Z,66.38
2018-09-21T08:56:33.837Z,66.22
2018-09-21T08:59:03.772Z,66.50
2018-09-21T09:01:35.465Z,66.17
2018-09-21T09:04:05.278Z,66.22
2018-09-21T09:06:34.893Z,66.46
2018-09-21T09:09:06.279Z,66.42
2018-09-21T09:11:36.085Z,66.68
2018-09-21T09:14:05.935Z,66.75
2018-09-21T09:16:36.235Z,66.82
2018-09-21T09:19:06.196Z,66.88
2018-09-21T09:21:35.867Z,66.59
2018-09-21T09:24:06.479Z,66.34
2018-09-21T09:26:37.176Z,65.83
2018-09-21T09:29:08.224Z,65.89
2018-09-21T09:31:37.974Z,65.82
2018-09-21T09:34:08.516Z,65.49
2018-09-21T09:36:40.059Z,65.66
2018-09-21T09:39:13.156Z,65.90
2018-09-21T09:41:43.471Z,65.75
2018-09-21T09:44:13.239Z,66.15
2018-09-21T09:46:43.050Z,66.20
2018-09-21T09:49:13.027Z,66.34
2018-09-21T09:51:42.994Z,66.40
2018-09-21T09:54:12.525Z,66.38
2018-09-21T09:56:42.035Z,66.49
2018-09-21T09:59:11.590Z,66.87
2018-09-21T10:01:41.815Z,66.91
2018-09-21T10:04:11.776Z,66.91
2018-09-21T10:06:42.358Z,66.94
2018-09-21T10:09:13.086Z,66.95
2018-09-21T10:11:42.891Z,67.02
2018-09-21T10:14:12.763Z,67.37
2018-09-21T10:16:43.041Z,67.60
2018-09-21T10:19:13.267Z,67.63
2018-09-21T10:21:43.302Z,67.71
2018-09-21T10:24:13.486Z,67.60
2018-09-21T10:26:43.663Z,67.47
2018-09-21T10:29:13.851Z,67.67
2018-09-21T10:31:43.628Z,67.72
2018-09-21T10:34:14.521Z,67.81
2018-09-21T10:36:44.365Z,67.57
2018-09-21T10:39:14.251Z,67.71
2018-09-21T10:41:43.694Z,68.03
2018-09-21T10:44:13.179Z,68.01
2018-09-21T10:46:42.935Z,67.78
2018-09-21T10:49:13.252Z,67.95
2018-09-21T10:51:43.273Z,67.68
2018-09-21T10:54:13.253Z,68.13
2018-09-21T10:56:43.440Z,67.71
2018-09-21T10:59:13.140Z,67.88
2018-09-21T11:01:43.352Z,67.89
2018-09-21T11:04:13.207Z,67.66
2018-09-21T11:06:43.180Z,67.69
2018-09-21T11:09:12.835Z,67.54
2018-09-21T11:11:43.819Z,67.83
2018-09-21T11:14:14.247Z,67.75
2018-09-21T11:16:44.065Z,68.14
2018-09-21T11:22:11.346Z,68.18
2018-09-21T11:24:41.038Z,68.08
2018-09-21T11:27:10.718Z,67.83
2018-09-21T11:29:40.372Z,68.12
2018-09-21T11:32:10.467Z,68.27
2018-09-21T11:34:40.228Z,68.20
2018-09-21T11:37:10.391Z,67.92
2018-09-21T11:39:40.767Z,68.06
2018-09-21T11:42:10.466Z,68.07
2018-09-21T11:44:40.159Z,67.94
2018-09-21T11:47:10.006Z,67.73
2018-09-21T11:49:40.029Z,67.86
2018-09-21T11:52:10.169Z,67.91
2018-09-21T11:54:40.033Z,68.15
2018-09-21T11:57:09.691Z,67.66
2018-09-21T11:59:39.897Z,67.64
2018-09-21T12:02:20.331Z,67.80
2018-09-21T12:04:50.248Z,67.23
2018-09-21T12:07:20.360Z,67.42
2018-09-21T12:09:51.474Z,67.21
2018-09-21T12:12:21.659Z,67.20
2018-09-21T12:14:51.576Z,66.89
2018-09-21T12:17:21.730Z,67.03
2018-09-21T12:19:51.823Z,66.93
2018-09-21T12:22:21.772Z,67.25
2018-09-21T12:24:53.521Z,67.06
2018-09-21T12:27:23.379Z,66.90
2018-09-21T12:29:53.190Z,66.86
2018-09-21T12:32:23.193Z,66.92
2018-09-21T12:34:53.288Z,67.13
2018-09-21T12:37:23.101Z,67.32
2018-09-21T12:39:54.171Z,67.13
2018-09-21T12:42:24.088Z,67.01
2018-09-21T12:44:55.211Z,67.37
2018-09-21T12:47:25.147Z,67.15
2018-09-21T12:49:55.490Z,67.08
2018-09-21T12:52:27.421Z,67.45
2018-09-21T12:54:57.831Z,67.38
2018-09-21T12:57:27.767Z,67.23
2018-09-21T12:59:57.759Z,67.47
2018-09-21T13:02:27.573Z,67.37
2018-09-21T13:04:57.732Z,67.35
2018-09-21T13:07:27.558Z,67.28
2018-09-21T13:09:58.445Z,67.33
2018-09-21T13:12:28.540Z,67.46
2018-09-21T13:14:59.900Z,67.44
2018-09-21T13:17:30.496Z,67.31
2018-09-21T13:20:02.602Z,67.60
2018-09-21T13:22:32.510Z,67.37
2018-09-21T13:25:03.475Z,67.33
2018-09-21T13:27:34.721Z,67.49
2018-09-21T13:30:17.989Z,67.27
2018-09-21T13:32:49.696Z,67.36
2018-09-21T13:35:21.295Z,67.28
2018-09-21T13:37:52.445Z,67.39
2018-09-21T13:40:24.337Z,67.36
2018-09-21T13:42:54.014Z,67.56
2018-09-21T13:45:24.171Z,67.54
2018-09-21T13:47:54.251Z,67.48
2018-09-21T13:50:24.675Z,67.32
2018-09-21T13:52:54.622Z,67.48
2018-09-21T13:55:24.659Z,67.59
2018-09-21T13:57:55.192Z,67.55
2018-09-21T14:00:25.513Z,67.53
2018-09-21T14:02:58.015Z,67.41
2018-09-21T14:05:29.397Z,67.50
2018-09-21T14:08:00.484Z,67.34
2018-09-21T14:10:30.272Z,67.53
2018-09-21T14:13:00.253Z,67.49
2018-09-21T14:15:31.511Z,67.49
2018-09-21T14:18:01.901Z,67.33
2018-09-21T14:20:32.520Z,67.58
2018-09-21T14:23:02.807Z,67.50
2018-09-21T14:25:32.779Z,67.64
2018-09-21T14:28:03.292Z,67.48
2018-09-21T14:30:32.815Z,67.30
2018-09-21T14:33:02.644Z,67.44
2018-09-21T14:35:32.271Z,67.56
2018-09-21T14:38:03.185Z,67.41
2018-09-21T14:40:33.384Z,67.10
2018-09-21T14:43:04.230Z,67.13
2018-09-21T14:45:34.287Z,67.25
2018-09-21T14:48:03.809Z,67.59
2018-09-21T14:50:34.566Z,67.69
2018-09-21T14:53:07.827Z,67.23
2018-09-21T14:55:37.704Z,67.54
2018-09-21T14:58:07.720Z,67.47
2018-09-21T15:00:38.558Z,67.19
2018-09-21T15:05:40.128Z,67.78
2018-09-21T15:08:10.104Z,67.59
2018-09-21T15:10:40.089Z,67.76
2018-09-21T15:13:09.666Z,67.67
2018-09-21T15:15:39.811Z,68.16
2018-09-21T15:18:09.664Z,67.73
2018-09-21T15:20:39.170Z,68.07
2018-09-21T15:23:09.761Z,68.15
2018-09-21T15:25:39.794Z,67.86
2018-09-21T15:30:41.128Z,67.86
2018-09-21T15:33:11.202Z,67.76
2018-09-21T15:35:41.846Z,67.50
2018-09-21T15:38:11.679Z,67.54
2018-09-21T15:40:41.347Z,67.15
2018-09-21T15:43:11.330Z,67.03
2018-09-21T15:45:41.413Z,67.25
2018-09-21T15:48:11.338Z,67.19
2018-09-21T15:50:41.110Z,67.31
2018-09-21T15:53:11.733Z,66.86
2018-09-21T15:55:42.699Z,66.92
2018-09-21T15:58:12.297Z,67.14
2018-09-21T16:00:42.741Z,66.89
2018-09-21T16:03:14.312Z,66.92
2018-09-21T16:05:45.993Z,67.09
2018-09-21T16:08:16.584Z,66.93
2018-09-21T16:10:46.429Z,67.12
2018-09-21T16:13:16.430Z,67.05
2018-09-21T16:15:47.195Z,67.07
2018-09-21T16:18:17.280Z,67.40
2018-09-21T16:20:47.661Z,67.21
2018-09-21T16:23:18.269Z,67.20
2018-09-21T16:25:48.585Z,67.08
2018-09-21T16:28:18.379Z,67.16
2018-09-21T16:30:48.456Z,67.40
2018-09-21T16:33:18.630Z,67.08
2018-09-21T16:35:48.395Z,67.36
2018-09-21T16:38:18.565Z,67.24
2018-09-21T16:40:48.991Z,67.58
2018-09-21T16:43:18.803Z,67.23
2018-09-21T16:45:56.700Z,67.64
2018-09-21T16:48:29.279Z,67.70
2018-09-21T16:50:59.148Z,67.78
2018-09-21T16:53:29.846Z,67.62
2018-09-21T16:55:59.663Z,67.52
2018-09-21T16:58:30.803Z,67.79
2018-09-21T17:01:01.424Z,67.52
2018-09-21T17:03:32.401Z,67.67
2018-09-21T17:06:05.506Z,67.62
2018-09-21T17:08:35.714Z,67.47
2018-09-21T17:11:06.497Z,67.57
2018-09-21T17:13:36.180Z,67.72
2018-09-21T17:16:05.837Z,67.54
2018-09-21T17:18:35.670Z,67.58
2018-09-21T17:21:07.049Z,68.20
2018-09-21T17:23:37.408Z,68.16
2018-09-21T17:26:07.102Z,68.13
2018-09-21T17:28:37.013Z,68.59
2018-09-21T17:31:06.723Z,68.74
2018-09-21T17:33:37.284Z,68.19
2018-09-21T17:36:08.092Z,68.81
2018-09-21T17:40:59.608Z,68.20
2018-09-21T17:43:29.771Z,67.92
2018-09-21T17:46:00.870Z,67.99
2018-09-21T17:48:30.950Z,67.85
2018-09-21T17:51:01.173Z,67.65
2018-09-21T17:53:30.811Z,68.06
2018-09-21T17:56:00.623Z,67.86
2018-09-21T17:58:30.547Z,67.90
2018-09-21T18:01:01.094Z,67.88
2018-09-21T18:03:31.409Z,68.00
2018-09-21T18:06:00.793Z,67.64
2018-09-21T18:08:30.693Z,68.21
2018-09-21T18:11:00.663Z,67.94
2018-09-21T18:13:30.663Z,67.72
2018-09-21T18:16:01.272Z,67.84
2018-09-21T18:18:31.755Z,67.64
2018-09-21T18:21:02.774Z,67.79
2018-09-21T18:23:32.974Z,68.04
2018-09-21T18:26:11.446Z,67.73
2018-09-21T18:28:41.273Z,67.44
2018-09-21T18:31:11.887Z,67.81
2018-09-21T18:33:42.202Z,67.92
2018-09-21T18:36:12.092Z,67.49
2018-09-21T18:38:42.245Z,67.96
2018-09-21T18:41:12.407Z,67.84
2018-09-21T18:43:43.435Z,67.77
2018-09-21T18:46:14.574Z,67.87
2018-09-21T18:48:45.674Z,67.79
2018-09-21T18:51:15.445Z,67.91
2018-09-21T18:53:45.072Z,67.93
2018-09-21T18:56:15.720Z,67.93
2018-09-21T18:58:46.424Z,67.94
2018-09-21T19:01:16.550Z,67.81
2018-09-21T19:03:47.425Z,67.76
2018-09-21T19:06:18.457Z,67.87
2018-09-21T19:08:48.364Z,67.83
2018-09-21T19:11:18.710Z,67.82
2018-09-21T19:13:49.510Z,67.55
2018-09-21T19:16:19.547Z,67.84
2018-09-21T19:18:50.268Z,67.73
2018-09-21T19:21:20.792Z,68.13
2018-09-21T19:23:51.329Z,67.90
2018-09-21T19:26:21.248Z,67.67
2018-09-21T19:28:51.101Z,68.11
2018-09-21T19:34:01.565Z,68.03
2018-09-21T19:36:31.295Z,68.14
2018-09-21T19:39:01.407Z,68.02
2018-09-21T19:41:34.299Z,67.92
2018-09-21T19:44:05.702Z,67.61
2018-09-21T19:46:35.961Z,67.88
2018-09-21T19:49:06.299Z,68.04
2018-09-21T19:51:35.865Z,67.87
2018-09-21T19:54:06.083Z,68.18
2018-09-21T19:56:36.140Z,67.66
2018-09-21T19:59:10.443Z,67.93
2018-09-21T20:01:40.906Z,67.43
2018-09-21T20:04:12.335Z,68.05
2018-09-21T20:06:42.294Z,68.01
2018-09-21T20:09:13.271Z,67.85
2018-09-21T20:11:44.084Z,67.46
2018-09-21T20:14:14.636Z,67.61
2018-09-21T20:16:45.218Z,67.60
2018-09-21T20:19:16.583Z,67.58
2018-09-21T20:21:46.492Z,67.37
2018-09-21T20:24:18.875Z,67.65
2018-09-21T20:26:49.735Z,67.58
2018-09-21T20:29:21.246Z,67.51
2018-09-21T20:31:56.196Z,67.37
2018-09-21T20:34:26.896Z,67.59
2018-09-21T20:36:57.877Z,67.51
2018-09-21T20:39:28.267Z,67.52
2018-09-21T20:42:04.182Z,67.42
2018-09-21T20:44:34.405Z,67.43
2018-09-21T20:47:05.211Z,67.76
2018-09-21T20:49:35.121Z,67.29
2018-09-21T20:52:04.857Z,67.50
2018-09-21T20:54:35.534Z,67.72
2018-09-21T20:57:05.580Z,67.35
2018-09-21T20:59:35.662Z,67.30
2018-09-21T21:02:06.719Z,67.52
2018-09-21T21:04:37.051Z,67.43
2018-09-21T21:07:07.704Z,67.61
2018-09-21T21:09:38.380Z,67.51
2018-09-21T21:12:08.875Z,67.42
2018-09-21T21:14:38.692Z,67.28
2018-09-21T21:17:08.882Z,67.63
2018-09-21T21:19:39.770Z,67.45
2018-09-21T21:22:09.569Z,67.56
2018-09-21T21:24:39.646Z,67.46
2018-09-21T21:27:10.109Z,67.66
2018-09-21T21:29:40.819Z,67.52
2018-09-21T21:32:10.442Z,67.22
2018-09-21T21:34:40.187Z,67.50
2018-09-21T21:37:10.035Z,67.22
2018-09-21T21:39:40.091Z,67.39
2018-09-21T21:42:09.677Z,67.37
2018-09-21T21:44:40.131Z,67.30
2018-09-21T21:47:10.419Z,67.33
2018-09-21T21:49:40.218Z,67.83
2018-09-21T21:52:10.406Z,67.52
2018-09-21T21:54:40.513Z,67.46
2018-09-21T21:57:12.139Z,67.97
2018-09-21T21:59:42.183Z,67.59
2018-09-21T22:02:13.142Z,67.59
2018-09-21T22:04:43.118Z,67.76
2018-09-21T22:07:13.526Z,67.68
2018-09-21T22:09:43.223Z,67.98
2018-09-21T22:12:18.080Z,67.56
2018-09-21T22:14:49.297Z,67.84
2018-09-21T22:17:19.383Z,67.90
2018-09-21T22:19:49.172Z,67.84
2018-09-21T22:22:19.186Z,67.94
2018-09-21T22:24:48.978Z,67.82
2018-09-21T22:27:18.626Z,68.02
2018-09-21T22:29:48.175Z,67.47
2018-09-21T22:32:18.121Z,67.68
2018-09-21T22:34:48.084Z,67.82
2018-09-21T22:37:18.002Z,67.58
2018-09-21T22:39:48.149Z,68.09
2018-09-21T22:42:18.240Z,67.53
2018-09-21T22:44:47.969Z,67.86
2018-09-21T22:47:18.523Z,67.87
2018-09-21T22:49:48.283Z,68.13
2018-09-21T22:52:17.915Z,68.00
2018-09-21T22:54:48.490Z,68.31
2018-09-21T22:57:18.282Z,68.01
2018-09-21T22:59:47.927Z,67.97
2018-09-21T23:02:17.638Z,68.18
2018-09-21T23:04:47.595Z,67.68
2018-09-21T23:07:17.511Z,67.55
2018-09-21T23:09:47.130Z,67.77
2018-09-21T23:12:17.115Z,67.91
2018-09-21T23:14:46.833Z,68.11
2018-09-21T23:17:16.310Z,67.98
2018-09-21T23:19:45.853Z,67.85
2018-09-21T23:22:16.463Z,67.71
2018-09-21T23:24:46.408Z,67.75
2018-09-21T23:27:16.546Z,67.82
2018-09-21T23:29:46.145Z,67.54
2018-09-21T23:32:15.771Z,67.70
2018-09-21T23:34:45.636Z,67.83
2018-09-21T23:37:15.832Z,67.99
2018-09-21T23:39:47.711Z,67.87
2018-09-21T23:42:18.108Z,67.98
2018-09-21T23:44:48.078Z,67.76
2018-09-21T23:47:17.629Z,67.86
2018-09-21T23:49:47.334Z,67.58
2018-09-21T23:52:17.709Z,67.92
2018-09-21T23:54:47.519Z,67.95
2018-09-21T23:57:17.265Z,68.02
2018-09-21T23:59:47.272Z,68.15
